Time;durP1;ratioP1;P1;durP2;ratioP2;P2;SDS_P1;SDS_P2;PMS_P1;PMS_P2;Temp;Humidity;BMP_temperature;BMP_pressure;BME280_temperature;BME280_humidity;BME280_pressure;Samples;Min_cycle;Max_cycle;Signal;HPM_P1;HPM_P2
2021/12/09 00:01:06;;;;;;;51.90;26.97;;;-0.10;99.90;;;;;;5034754;28;20194;-73
2021/12/09 00:03:36;;;;;;;46.00;27.63;;;-0.10;99.90;;;;;;5034433;28;20576;-72
2021/12/09 00:06:04;;;;;;;46.17;26.33;;;-0.10;99.90;;;;;;5034751;28;20250;-73
2021/12/09 00:08:30;;;;;;;49.63;26.47;;;-0.10;99.90;;;;;;5031469;28;20302;-76
2021/12/09 00:10:59;;;;;;;49.57;26.50;;;-0.20;99.90;;;;;;5031760;28;20736;-74
2021/12/09 00:13:26;;;;;;;56.67;28.43;;;-0.20;99.90;;;;;;5028319;28;20589;-79
2021/12/09 00:15:52;;;;;;;46.53;27.57;;;-0.10;99.90;;;;;;5036126;28;20225;-75
2021/12/09 00:18:18;;;;;;;39.57;23.87;;;-0.20;99.90;;;;;;5032175;28;20207;-73
2021/12/09 00:20:44;;;;;;;51.67;26.30;;;-0.20;99.90;;;;;;5030758;28;20185;-77
2021/12/09 00:23:10;;;;;;;50.03;27.27;;;-0.20;99.90;;;;;;5031302;28;20254;-75
2021/12/09 00:25:36;;;;;;;52.27;25.40;;;-0.20;99.90;;;;;;5038180;28;20978;-76
2021/12/09 00:28:02;;;;;;;45.50;27.60;;;-0.30;99.90;;;;;;5038351;28;20248;-75
2021/12/09 00:30:31;;;;;;;57.40;28.60;;;-0.40;99.90;;;;;;5038705;28;20219;-75
2021/12/09 00:32:58;;;;;;;49.40;28.53;;;-0.40;99.90;;;;;;5034650;28;20235;-74
2021/12/09 00:35:30;;;;;;;52.13;29.33;;;-0.40;99.90;;;;;;5037324;28;20196;-74
2021/12/09 00:38:01;;;;;;;60.13;28.27;;;-0.30;99.90;;;;;;5028604;28;20232;-74
2021/12/09 00:40:27;;;;;;;52.27;29.37;;;-0.30;99.90;;;;;;5031301;28;20686;-75
2021/12/09 00:42:53;;;;;;;51.73;27.87;;;-0.30;99.90;;;;;;5037420;28;20232;-75
2021/12/09 00:45:20;;;;;;;58.73;31.30;;;-0.40;99.90;;;;;;5033857;28;20182;-75
2021/12/09 00:47:45;;;;;;;53.00;29.57;;;-0.40;99.90;;;;;;5037641;28;20224;-76
2021/12/09 00:50:11;;;;;;;58.07;31.20;;;-0.50;99.90;;;;;;5035297;28;20213;-76
2021/12/09 00:52:37;;;;;;;54.20;30.47;;;-0.50;99.90;;;;;;5037873;28;20218;-76
2021/12/09 00:55:06;;;;;;;61.37;28.43;;;-0.50;99.90;;;;;;5034522;28;20209;-77
2021/12/09 00:57:32;;;;;;;62.87;30.27;;;-0.50;99.90;;;;;;5039134;28;20201;-77
2021/12/09 00:59:58;;;;;;;62.13;30.53;;;-0.50;99.90;;;;;;5032887;28;20205;-77
2021/12/09 01:02:24;;;;;;;55.13;30.97;;;-0.50;99.90;;;;;;5040072;28;20282;-75
2021/12/09 01:04:50;;;;;;;62.43;30.37;;;-0.50;99.90;;;;;;5034484;28;20342;-76
2021/12/09 01:07:15;;;;;;;56.23;29.10;;;-0.50;99.90;;;;;;5038624;28;20193;-75
2021/12/09 01:09:41;;;;;;;57.23;30.27;;;-0.50;99.90;;;;;;5037308;28;20201;-74
2021/12/09 01:12:08;;;;;;;58.77;30.03;;;-0.50;99.90;;;;;;5040216;28;20216;-73
2021/12/09 01:14:36;;;;;;;54.20;29.27;;;-0.40;99.90;;;;;;5036640;28;20212;-72
2021/12/09 01:17:04;;;;;;;52.90;29.77;;;-0.40;99.90;;;;;;5036462;28;20176;-73
2021/12/09 01:19:30;;;;;;;55.60;29.93;;;-0.40;99.90;;;;;;5035251;28;20221;-73
2021/12/09 01:21:55;;;;;;;53.73;30.53;;;-0.40;99.90;;;;;;5036522;28;20200;-72
2021/12/09 01:24:21;;;;;;;52.80;29.23;;;-0.50;99.90;;;;;;5037480;28;20205;-74
2021/12/09 01:26:48;;;;;;;57.20;30.70;;;-0.50;99.90;;;;;;5039343;28;20282;-74
2021/12/09 01:29:18;;;;;;;58.93;28.70;;;-0.50;99.90;;;;;;5031273;28;20213;-74
2021/12/09 01:31:53;;;;;;;56.00;29.07;;;-0.50;99.90;;;;;;5039962;28;20225;-74
2021/12/09 01:34:20;;;;;;;55.40;30.43;;;-0.50;99.90;;;;;;5032718;28;20192;-74
2021/12/09 01:36:48;;;;;;;64.47;31.23;;;-0.50;99.90;;;;;;5039527;28;20270;-74
2021/12/09 01:39:13;;;;;;;60.07;30.40;;;-0.60;99.90;;;;;;5037191;28;20201;-72
2021/12/09 01:41:39;;;;;;;56.70;30.40;;;-0.60;99.90;;;;;;5057556;28;20226;-70
2021/12/09 01:44:05;;;;;;;63.30;31.90;;;-0.60;99.90;;;;;;5042315;28;20296;-71
2021/12/09 01:46:31;;;;;;;56.27;32.67;;;-0.50;99.90;;;;;;5065646;28;20275;-71
2021/12/09 01:48:56;;;;;;;60.47;32.20;;;-0.40;99.90;;;;;;5038672;28;20212;-73
2021/12/09 01:51:22;;;;;;;49.13;27.43;;;-0.50;99.90;;;;;;5049094;28;20209;-64
2021/12/09 01:53:48;;;;;;;59.47;31.90;;;-0.50;99.90;;;;;;5045214;28;20192;-64
2021/12/09 01:56:25;;;;;;;60.93;32.00;;;-0.60;99.90;;;;;;5045513;28;20221;-65
2021/12/09 01:58:55;;;;;;;65.47;33.97;;;-0.60;99.90;;;;;;5045192;28;20565;-73
2021/12/09 02:01:21;;;;;;;60.10;32.10;;;-0.60;99.90;;;;;;5055127;28;20205;-63
2021/12/09 02:03:47;;;;;;;64.30;33.13;;;-0.60;99.90;;;;;;5034393;28;20213;-63
2021/12/09 02:06:13;;;;;;;67.83;33.47;;;-0.60;99.90;;;;;;5036815;28;20533;-63
2021/12/09 02:08:39;;;;;;;62.77;31.00;;;-0.60;99.90;;;;;;5036772;28;20332;-65
2021/12/09 02:11:05;;;;;;;62.33;31.90;;;-0.60;99.90;;;;;;5033216;28;20982;-64
2021/12/09 02:13:31;;;;;;;67.40;33.60;;;-0.60;99.90;;;;;;5034924;28;20263;-65
2021/12/09 02:15:57;;;;;;;62.37;33.43;;;-0.70;99.90;;;;;;5035088;28;20622;-65
2021/12/09 02:18:23;;;;;;;68.23;32.23;;;-0.70;99.90;;;;;;5034541;28;20200;-65
2021/12/09 02:21:08;;;;;;;59.70;31.27;;;-0.70;99.90;;;;;;5034660;28;20183;-65
2021/12/09 02:23:35;;;;;;;54.47;30.10;;;-0.70;99.90;;;;;;5037467;28;20209;-66
2021/12/09 02:26:01;;;;;;;56.33;31.93;;;-0.60;99.90;;;;;;5036658;28;20230;-64
2021/12/09 02:28:27;;;;;;;60.77;30.27;;;-0.60;99.90;;;;;;5035787;28;20206;-65
2021/12/09 02:30:53;;;;;;;64.57;34.00;;;-0.60;99.90;;;;;;5035358;28;20590;-64
2021/12/09 02:33:18;;;;;;;57.73;31.30;;;-0.60;99.90;;;;;;5034237;28;20214;-65
2021/12/09 02:35:44;;;;;;;61.03;29.50;;;-0.60;99.90;;;;;;5034111;28;20281;-65
2021/12/09 02:38:10;;;;;;;66.57;35.33;;;-0.60;99.90;;;;;;5035501;28;20232;-63
2021/12/09 02:40:36;;;;;;;64.53;32.40;;;-0.60;99.90;;;;;;5032261;28;20755;-63
2021/12/09 02:43:03;;;;;;;65.37;33.00;;;-0.70;99.90;;;;;;5035656;28;20228;-63
2021/12/09 02:45:29;;;;;;;57.27;32.27;;;-0.70;99.90;;;;;;5034291;28;20651;-63
2021/12/09 02:47:54;;;;;;;56.77;32.83;;;-0.70;99.90;;;;;;5035761;28;20241;-63
2021/12/09 02:50:20;;;;;;;64.83;32.20;;;-0.60;99.90;;;;;;5034101;28;20194;-65
2021/12/09 02:52:47;;;;;;;66.93;33.80;;;-0.60;99.90;;;;;;5034567;28;20629;-64
2021/12/09 02:55:13;;;;;;;63.27;32.53;;;-0.60;99.90;;;;;;5032328;28;20179;-65
2021/12/09 02:57:38;;;;;;;66.90;33.87;;;-0.60;99.90;;;;;;5038113;28;20317;-63
2021/12/09 03:00:06;;;;;;;61.03;32.63;;;-0.60;99.90;;;;;;5029573;28;20556;-63
2021/12/09 03:02:31;;;;;;;65.00;33.33;;;-0.60;99.90;;;;;;5051155;28;20203;-63
2021/12/09 03:05:02;;;;;;;58.13;29.87;;;-0.60;99.90;;;;;;5034365;28;20210;-63
2021/12/09 03:07:36;;;;;;;59.87;30.33;;;-0.70;99.90;;;;;;5038070;28;20282;-65
2021/12/09 03:10:19;;;;;;;61.50;32.53;;;-0.70;99.90;;;;;;5023853;28;20210;-65
2021/12/09 03:12:45;;;;;;;60.97;33.20;;;-0.70;99.90;;;;;;5024139;28;20224;-65
2021/12/09 03:15:11;;;;;;;60.70;31.67;;;-0.70;99.90;;;;;;5052958;28;20312;-64
2021/12/09 03:17:38;;;;;;;59.40;29.63;;;-0.70;99.90;;;;;;5045756;28;20287;-64
2021/12/09 03:20:08;;;;;;;61.47;29.47;;;-0.70;99.90;;;;;;5029437;28;20203;-64
2021/12/09 03:22:34;;;;;;;61.10;32.20;;;-0.70;99.90;;;;;;5055054;28;20193;-64
2021/12/09 03:25:00;;;;;;;61.77;33.03;;;-0.70;99.90;;;;;;5033790;28;20211;-64
2021/12/09 03:27:26;;;;;;;59.57;31.33;;;-0.70;99.90;;;;;;5045148;28;20226;-64
2021/12/09 03:29:51;;;;;;;56.90;31.17;;;-0.70;99.90;;;;;;5043759;28;20194;-64
2021/12/09 03:32:18;;;;;;;57.77;30.80;;;-0.70;99.90;;;;;;5059435;28;20209;-64
2021/12/09 03:34:44;;;;;;;59.90;32.90;;;-0.70;99.90;;;;;;5026539;28;20229;-64
2021/12/09 03:37:14;;;;;;;56.80;28.97;;;-0.70;99.90;;;;;;5040461;28;20288;-64
2021/12/09 03:39:41;;;;;;;71.67;32.43;;;-0.80;99.90;;;;;;5026854;28;20196;-65
2021/12/09 03:42:10;;;;;;;62.77;32.23;;;-0.80;99.90;;;;;;5056729;28;20204;-64
2021/12/09 03:44:37;;;;;;;58.80;30.40;;;-0.80;99.90;;;;;;5035222;28;20666;-65
2021/12/09 03:47:05;;;;;;;58.97;31.93;;;-0.70;99.90;;;;;;5040706;28;20208;-64
2021/12/09 03:49:31;;;;;;;65.77;31.57;;;-0.70;99.90;;;;;;5035696;28;20275;-64
2021/12/09 03:51:57;;;;;;;70.10;34.00;;;-0.60;99.90;;;;;;5040349;28;20639;-67
2021/12/09 03:54:24;;;;;;;67.13;33.40;;;-0.70;99.90;;;;;;5032261;28;20191;-65
2021/12/09 03:56:50;;;;;;;59.93;33.63;;;-0.70;99.90;;;;;;5057758;28;20208;-65
2021/12/09 03:59:15;;;;;;;62.03;32.77;;;-0.70;99.90;;;;;;5036623;28;20193;-65
2021/12/09 04:01:44;;;;;;;61.30;34.67;;;-0.60;99.90;;;;;;5037302;28;20205;-65
2021/12/09 04:04:11;;;;;;;57.20;32.80;;;-0.60;99.90;;;;;;5032089;28;20299;-64
2021/12/09 04:06:37;;;;;;;59.47;32.87;;;-0.60;99.90;;;;;;5038644;28;20193;-64
2021/12/09 04:09:06;;;;;;;64.83;34.07;;;-0.60;99.90;;;;;;5029220;28;20213;-63
2021/12/09 04:11:32;;;;;;;60.30;34.30;;;-0.70;99.90;;;;;;5045225;28;20214;-64
2021/12/09 04:13:58;;;;;;;64.60;33.17;;;-0.70;99.90;;;;;;5034032;28;20209;-63
2021/12/09 04:16:23;;;;;;;63.90;33.00;;;-0.70;99.90;;;;;;5037948;28;20205;-64
2021/12/09 04:18:49;;;;;;;60.07;33.33;;;-0.60;99.90;;;;;;5035717;28;20216;-64
2021/12/09 04:21:15;;;;;;;65.90;36.10;;;-0.60;99.90;;;;;;5052544;28;20209;-63
2021/12/09 04:23:41;;;;;;;61.00;32.67;;;-0.50;99.90;;;;;;5037694;28;20209;-63
2021/12/09 04:26:07;;;;;;;64.00;33.10;;;-0.50;99.90;;;;;;5049426;28;20204;-63
2021/12/09 04:28:34;;;;;;;66.67;34.07;;;-0.50;99.90;;;;;;5031472;28;20270;-64
2021/12/09 04:31:01;;;;;;;62.50;34.57;;;-0.50;99.90;;;;;;5044918;28;20293;-64
2021/12/09 04:33:29;;;;;;;59.67;33.13;;;-0.50;99.90;;;;;;5039634;28;20208;-64
2021/12/09 04:35:55;;;;;;;59.87;33.83;;;-0.50;99.90;;;;;;5055461;28;20197;-64
2021/12/09 04:38:21;;;;;;;71.20;35.37;;;-0.60;99.90;;;;;;5039542;28;20209;-63
2021/12/09 04:40:46;;;;;;;55.47;31.83;;;-0.60;99.90;;;;;;5063166;28;20190;-64
2021/12/09 04:43:12;;;;;;;68.73;35.23;;;-0.60;99.90;;;;;;5031619;28;20606;-64
2021/12/09 04:45:39;;;;;;;58.10;30.87;;;-0.60;99.90;;;;;;5042088;28;20262;-64
2021/12/09 04:48:05;;;;;;;71.00;33.70;;;-0.60;99.90;;;;;;5047535;28;20246;-64
2021/12/09 04:50:31;;;;;;;63.20;32.10;;;-0.50;99.90;;;;;;5057893;28;20195;-67
2021/12/09 04:52:57;;;;;;;63.87;31.30;;;-0.60;99.90;;;;;;5043314;28;20228;-66
2021/12/09 04:55:23;;;;;;;62.20;32.43;;;-0.50;99.90;;;;;;5055104;28;20511;-67
2021/12/09 04:57:49;;;;;;;62.00;31.33;;;-0.50;99.90;;;;;;5042013;28;20238;-66
2021/12/09 05:00:18;;;;;;;60.53;33.23;;;-0.40;99.90;;;;;;5055314;28;20185;-67
2021/12/09 05:03:03;;;;;;;66.43;34.63;;;-0.40;99.90;;;;;;5052515;28;20978;-66
2021/12/09 05:05:33;;;;;;;60.20;32.37;;;-0.50;99.90;;;;;;5030837;28;20194;-65
2021/12/09 05:07:59;;;;;;;53.73;30.13;;;-0.50;99.90;;;;;;5044782;28;20267;-66
2021/12/09 05:10:24;;;;;;;61.80;32.27;;;-0.50;99.90;;;;;;5039645;28;20202;-65
2021/12/09 05:12:50;;;;;;;59.07;31.23;;;-0.40;99.90;;;;;;5046893;28;20291;-64
2021/12/09 05:15:15;;;;;;;60.40;31.70;;;-0.40;99.90;;;;;;5052705;28;20659;-64
2021/12/09 05:17:41;;;;;;;63.37;29.70;;;-0.40;99.90;;;;;;5038725;28;20217;-64
2021/12/09 05:20:07;;;;;;;57.13;31.97;;;-0.50;99.90;;;;;;5041275;28;20647;-64
2021/12/09 05:22:33;;;;;;;57.80;32.27;;;-0.50;99.90;;;;;;5057063;28;20201;-64
2021/12/09 05:24:58;;;;;;;50.33;29.67;;;-0.50;99.90;;;;;;5067475;28;20181;-65
2021/12/09 05:27:24;;;;;;;58.07;31.67;;;-0.50;99.90;;;;;;5041568;28;20284;-64
2021/12/09 05:30:03;;;;;;;55.43;32.03;;;-0.50;99.90;;;;;;5035753;28;20219;-64
2021/12/09 05:32:30;;;;;;;53.40;29.37;;;-0.50;99.90;;;;;;5025496;28;20223;-64
2021/12/09 05:34:56;;;;;;;56.93;30.40;;;-0.60;99.90;;;;;;5043933;28;20193;-64
2021/12/09 05:37:24;;;;;;;57.53;30.27;;;-0.60;99.90;;;;;;5052087;28;20216;-64
2021/12/09 05:39:52;;;;;;;62.63;33.10;;;-0.60;99.90;;;;;;5035213;28;20273;-65
2021/12/09 05:42:19;;;;;;;61.63;33.57;;;-0.60;99.90;;;;;;5053212;28;20200;-64
2021/12/09 05:44:46;;;;;;;59.60;31.00;;;-0.60;99.90;;;;;;5030167;28;20200;-65
2021/12/09 05:47:12;;;;;;;57.23;29.73;;;-0.60;99.90;;;;;;5041501;28;20208;-65
2021/12/09 05:49:42;;;;;;;57.70;31.93;;;-0.60;99.90;;;;;;5036695;28;20786;-65
2021/12/09 05:52:07;;;;;;;63.87;34.00;;;-0.60;99.90;;;;;;5047801;28;20213;-65
2021/12/09 05:54:33;;;;;;;61.37;32.23;;;-0.60;99.90;;;;;;5035368;28;20289;-65
2021/12/09 05:56:59;;;;;;;64.30;33.00;;;-0.50;99.90;;;;;;5060840;28;20209;-65
2021/12/09 05:59:26;;;;;;;62.87;33.37;;;-0.50;99.90;;;;;;5035218;28;20618;-65
2021/12/09 06:01:52;;;;;;;54.87;31.10;;;-0.40;99.90;;;;;;5051456;28;20195;-65
2021/12/09 06:04:17;;;;;;;60.37;32.80;;;-0.40;99.90;;;;;;5034239;28;20204;-66
2021/12/09 06:06:44;;;;;;;58.47;31.87;;;-0.40;99.90;;;;;;5055156;28;20203;-65
2021/12/09 06:09:11;;;;;;;58.73;30.33;;;-0.50;99.90;;;;;;5035664;28;20219;-65
2021/12/09 06:11:39;;;;;;;60.23;29.77;;;-0.50;99.90;;;;;;5041937;28;20211;-65
2021/12/09 06:14:06;;;;;;;57.47;32.20;;;-0.50;99.90;;;;;;5045628;28;20210;-65
2021/12/09 06:16:36;;;;;;;68.27;31.67;;;-0.50;99.90;;;;;;5039887;28;20606;-64
2021/12/09 06:19:04;;;;;;;55.73;31.20;;;-0.50;99.90;;;;;;5033120;28;20200;-66
2021/12/09 06:21:30;;;;;;;51.97;29.83;;;-0.60;99.90;;;;;;5055562;28;20217;-66
2021/12/09 06:23:57;;;;;;;59.43;31.33;;;-0.60;99.90;;;;;;5035212;28;20680;-73
2021/12/09 06:26:23;;;;;;;57.00;30.87;;;-0.50;99.90;;;;;;5053059;28;20199;-67
2021/12/09 06:28:48;;;;;;;56.10;27.90;;;-0.50;99.90;;;;;;5035021;28;20260;-65
2021/12/09 06:31:14;;;;;;;54.70;31.13;;;-0.40;99.90;;;;;;5042776;28;20238;-65
2021/12/09 06:33:39;;;;;;;59.57;33.87;;;-0.50;99.90;;;;;;5034605;28;20690;-66
2021/12/09 06:36:05;;;;;;;55.63;30.63;;;-0.50;99.90;;;;;;5048485;28;20559;-66
2021/12/09 06:38:31;;;;;;;58.60;31.67;;;-0.50;99.90;;;;;;5032611;28;20207;-64
2021/12/09 06:40:57;;;;;;;62.47;31.87;;;-0.50;99.90;;;;;;5046770;28;20198;-65
2021/12/09 06:43:23;;;;;;;63.13;30.90;;;-0.40;99.90;;;;;;5037156;28;20207;-65
2021/12/09 06:45:49;;;;;;;62.40;33.73;;;-0.40;99.90;;;;;;5049876;28;20217;-64
2021/12/09 06:48:14;;;;;;;63.17;32.73;;;-0.40;99.90;;;;;;5037215;28;20672;-65
2021/12/09 06:50:40;;;;;;;65.37;34.13;;;-0.50;99.90;;;;;;5049370;28;20204;-65
2021/12/09 06:53:08;;;;;;;64.07;35.13;;;-0.50;99.90;;;;;;5043054;28;20223;-65
2021/12/09 06:55:34;;;;;;;68.20;35.37;;;-0.60;99.90;;;;;;5059414;28;20195;-65
2021/12/09 06:58:00;;;;;;;59.43;32.07;;;-0.60;99.90;;;;;;5043115;28;20726;-65
2021/12/09 07:00:30;;;;;;;58.23;33.67;;;-0.60;99.90;;;;;;5038206;28;20570;-65
2021/12/09 07:02:56;;;;;;;64.90;33.40;;;-0.60;99.90;;;;;;5037617;28;20283;-65
2021/12/09 07:05:23;;;;;;;64.53;35.23;;;-0.60;99.90;;;;;;5060385;28;20602;-65
2021/12/09 07:07:50;;;;;;;67.07;34.90;;;-0.60;99.90;;;;;;5046193;28;20672;-65
2021/12/09 07:10:16;;;;;;;67.90;33.63;;;-0.60;99.90;;;;;;5064728;28;20736;-65
2021/12/09 07:12:42;;;;;;;65.60;34.60;;;-0.60;99.90;;;;;;5039085;28;20264;-65
2021/12/09 07:15:10;;;;;;;67.90;34.80;;;-0.60;99.90;;;;;;5046840;28;20326;-67
2021/12/09 07:17:36;;;;;;;64.90;33.87;;;-0.60;99.90;;;;;;5044475;28;20916;-66
2021/12/09 07:20:05;;;;;;;64.13;35.63;;;-0.50;99.90;;;;;;5042554;28;20677;-64
2021/12/09 07:22:31;;;;;;;67.17;36.43;;;-0.50;99.90;;;;;;5057631;28;20211;-65
2021/12/09 07:24:57;;;;;;;67.43;34.73;;;-0.40;99.90;;;;;;5033985;28;20191;-64
2021/12/09 07:27:23;;;;;;;65.80;35.57;;;-0.50;99.90;;;;;;5056533;28;20208;-66
2021/12/09 07:29:49;;;;;;;66.47;36.37;;;-0.50;99.90;;;;;;5038300;28;20214;-66
2021/12/09 07:32:15;;;;;;;68.87;35.80;;;-0.60;99.90;;;;;;5046980;28;20216;-66
2021/12/09 07:34:42;;;;;;;75.33;33.80;;;-0.60;99.90;;;;;;5042064;28;20187;-66
2021/12/09 07:37:08;;;;;;;66.63;34.23;;;-0.60;99.90;;;;;;5052062;28;20535;-66
2021/12/09 07:39:34;;;;;;;75.50;38.80;;;-0.60;99.90;;;;;;5043222;28;20184;-67
2021/12/09 07:42:01;;;;;;;74.07;37.60;;;-0.50;99.90;;;;;;5049123;28;20200;-65
2021/12/09 07:44:28;;;;;;;72.57;37.33;;;-0.40;99.90;;;;;;5041328;28;20198;-66
2021/12/09 07:46:55;;;;;;;73.23;35.73;;;-0.50;99.90;;;;;;5051441;28;20216;-66
2021/12/09 07:49:21;;;;;;;71.13;35.50;;;-0.40;99.90;;;;;;5032974;28;20215;-66
2021/12/09 07:51:48;;;;;;;69.60;36.03;;;-0.40;99.90;;;;;;5056740;28;20212;-65
2021/12/09 07:54:14;;;;;;;76.17;37.70;;;-0.30;99.90;;;;;;5037602;28;20285;-66
2021/12/09 07:56:40;;;;;;;63.07;35.10;;;-0.30;99.90;;;;;;5048787;28;20216;-66
2021/12/09 07:59:06;;;;;;;71.00;37.00;;;-0.30;99.90;;;;;;5034307;28;20204;-65
2021/12/09 08:01:31;;;;;;;71.70;33.93;;;-0.30;99.90;;;;;;5056282;28;20265;-66
2021/12/09 08:03:58;;;;;;;76.00;37.53;;;-0.30;99.90;;;;;;5050390;28;20211;-65
2021/12/09 08:06:24;;;;;;;67.60;35.10;;;-0.40;99.90;;;;;;5047410;28;20814;-65
2021/12/09 08:08:49;;;;;;;60.77;36.37;;;-0.30;99.90;;;;;;5044360;28;20211;-65
2021/12/09 08:11:15;;;;;;;69.70;36.57;;;-0.40;99.90;;;;;;5064090;28;20635;-66
2021/12/09 08:13:41;;;;;;;71.70;35.47;;;-0.40;99.90;;;;;;5052578;28;20201;-66
2021/12/09 08:16:06;;;;;;;70.27;35.80;;;-0.30;99.90;;;;;;5044760;28;20242;-65
2021/12/09 08:18:43;;;;;;;69.37;36.60;;;-0.30;99.90;;;;;;5051891;28;20288;-65
2021/12/09 08:21:09;;;;;;;66.37;33.77;;;-0.30;99.90;;;;;;5042662;28;20159;-65
2021/12/09 08:23:35;;;;;;;65.67;34.03;;;-0.30;99.90;;;;;;5047115;28;20193;-65
2021/12/09 08:26:00;;;;;;;67.63;35.93;;;-0.30;99.90;;;;;;5042002;28;20200;-66
2021/12/09 08:28:26;;;;;;;68.27;35.60;;;-0.30;99.90;;;;;;5052159;28;20202;-65
2021/12/09 08:30:52;;;;;;;69.37;35.70;;;-0.40;99.90;;;;;;5032161;28;20190;-66
2021/12/09 08:33:20;;;;;;;64.60;35.13;;;-0.50;99.90;;;;;;5054563;28;20212;-66
2021/12/09 08:35:47;;;;;;;60.13;34.23;;;-0.50;99.90;;;;;;5033278;28;20182;-66
2021/12/09 08:38:12;;;;;;;70.20;35.33;;;-0.60;99.90;;;;;;5051131;28;20706;-67
2021/12/09 08:40:38;;;;;;;79.23;38.57;;;-0.60;99.90;;;;;;5030097;28;20543;-66
2021/12/09 08:43:04;;;;;;;57.53;32.70;;;-0.60;99.90;;;;;;5043799;28;20188;-66
2021/12/09 08:45:30;;;;;;;68.57;34.73;;;-0.60;99.90;;;;;;5035698;28;20189;-66
2021/12/09 08:47:56;;;;;;;65.87;34.10;;;-0.50;99.90;;;;;;5061300;28;20203;-66
2021/12/09 08:50:32;;;;;;;79.57;40.53;;;-0.50;99.90;;;;;;5040828;28;20554;-67
2021/12/09 08:52:58;;;;;;;74.90;36.50;;;-0.40;99.90;;;;;;5035754;28;20678;-66
2021/12/09 08:55:24;;;;;;;77.37;36.77;;;-0.40;99.90;;;;;;5036513;28;20186;-65
2021/12/09 08:57:50;;;;;;;81.23;36.50;;;-0.40;99.90;;;;;;5047537;28;20238;-64
2021/12/09 09:00:17;;;;;;;75.50;39.23;;;-0.40;99.90;;;;;;5035721;28;20193;-64
2021/12/09 09:02:45;;;;;;;71.07;33.13;;;-0.30;99.90;;;;;;5044212;28;20582;-66
2021/12/09 09:05:13;;;;;;;71.07;37.83;;;-0.40;99.90;;;;;;5045565;28;20320;-65
2021/12/09 09:07:40;;;;;;;71.53;36.03;;;-0.40;99.90;;;;;;5050582;28;20218;-66
2021/12/09 09:10:07;;;;;;;71.73;37.37;;;-0.40;99.90;;;;;;5036046;28;20212;-66
2021/12/09 09:12:33;;;;;;;75.90;38.50;;;-0.40;99.90;;;;;;5043633;28;20312;-66
2021/12/09 09:15:02;;;;;;;70.90;38.47;;;-0.30;99.90;;;;;;5046088;28;20227;-65
2021/12/09 09:17:27;;;;;;;79.70;38.83;;;-0.30;99.90;;;;;;5048007;28;20216;-64
2021/12/09 09:19:53;;;;;;;71.47;38.47;;;-0.20;99.90;;;;;;5033412;28;20224;-65
2021/12/09 09:22:18;;;;;;;79.47;38.33;;;-0.10;99.90;;;;;;5059325;28;20651;-65
2021/12/09 09:24:44;;;;;;;76.40;40.97;;;0.00;99.90;;;;;;5031619;28;20209;-66
2021/12/09 09:27:09;;;;;;;70.23;37.10;;;0.10;99.90;;;;;;5051987;28;20197;-65
2021/12/09 09:29:38;;;;;;;74.97;37.73;;;0.10;99.90;;;;;;5031571;28;20209;-65
2021/12/09 09:32:04;;;;;;;76.40;39.20;;;0.10;99.90;;;;;;5039858;28;20217;-65
2021/12/09 09:34:30;;;;;;;68.63;37.13;;;0.10;99.90;;;;;;5033496;28;20750;-64
2021/12/09 09:36:55;;;;;;;71.90;36.60;;;0.00;99.90;;;;;;5042804;28;20284;-65
2021/12/09 09:39:27;;;;;;;78.70;40.53;;;-0.10;99.90;;;;;;5035773;28;20218;-66
2021/12/09 09:42:18;;;;;;;72.17;37.60;;;-0.10;99.90;;;;;;5037620;28;20208;-65
2021/12/09 09:44:55;;;;;;;69.30;36.90;;;-0.10;99.90;;;;;;5031798;28;20262;-65
2021/12/09 09:47:22;;;;;;;68.13;37.47;;;0.00;99.90;;;;;;5033407;28;20254;-65
2021/12/09 09:49:48;;;;;;;71.57;36.40;;;0.00;99.90;;;;;;5037490;28;20323;-66
2021/12/09 09:52:15;;;;;;;76.00;39.40;;;0.00;99.90;;;;;;5040635;28;20253;-65
2021/12/09 09:54:41;;;;;;;69.53;34.53;;;0.00;99.90;;;;;;5035257;28;20403;-66
2021/12/09 09:57:08;;;;;;;70.60;37.60;;;0.10;99.90;;;;;;5036104;28;20742;-64
2021/12/09 09:59:35;;;;;;;62.13;36.93;;;0.10;99.90;;;;;;5039626;28;20197;-67
2021/12/09 10:02:03;;;;;;;75.17;36.57;;;0.20;99.90;;;;;;5038964;28;20203;-67
2021/12/09 10:04:45;;;;;;;70.30;36.50;;;0.20;99.90;;;;;;5034877;28;20209;-65
2021/12/09 10:07:17;;;;;;;65.07;36.70;;;0.20;99.90;;;;;;5034930;28;20663;-66
2021/12/09 10:09:44;;;;;;;77.00;38.43;;;0.20;99.90;;;;;;5037037;28;20208;-66
2021/12/09 10:12:12;;;;;;;70.87;39.23;;;0.30;99.90;;;;;;5033122;28;20220;-65
2021/12/09 10:14:38;;;;;;;74.27;38.83;;;0.40;99.90;;;;;;5044781;28;20219;-65
2021/12/09 10:17:10;;;;;;;61.93;35.77;;;0.40;99.90;;;;;;5032831;28;20211;-65
2021/12/09 10:19:39;;;;;;;59.23;35.43;;;0.30;99.90;;;;;;5033656;28;20191;-65
2021/12/09 10:22:09;;;;;;;65.33;36.13;;;0.30;99.90;;;;;;5038958;28;20255;-66
2021/12/09 10:24:36;;;;;;;74.27;38.27;;;0.20;99.90;;;;;;5037783;28;20186;-65
2021/12/09 10:27:02;;;;;;;67.33;36.83;;;0.20;99.90;;;;;;5041170;28;20212;-68
2021/12/09 10:29:33;;;;;;;69.80;38.07;;;0.20;99.90;;;;;;5037488;28;20193;-78
2021/12/09 10:32:06;;;;;;;67.30;35.87;;;0.30;99.90;;;;;;5024750;28;20596;-75
2021/12/09 10:34:40;;;;;;;62.37;33.47;;;0.30;99.90;;;;;;5052761;28;20198;-74
2021/12/09 10:37:16;;;;;;;55.47;32.47;;;0.20;99.90;;;;;;5030544;28;20192;-76
2021/12/09 10:40:03;;;;;;;62.77;34.57;;;0.30;99.90;;;;;;5047063;28;20186;-72
2021/12/09 10:42:33;;;;;;;58.80;32.50;;;0.30;99.90;;;;;;5031474;28;20219;-74
2021/12/09 10:45:21;;;;;;;60.40;33.67;;;0.30;99.90;;;;;;5065113;28;20196;-76
2021/12/09 10:48:05;;;;;;;61.27;33.30;;;0.20;99.90;;;;;;5027102;28;20217;-78
2021/12/09 10:50:43;;;;;;;61.87;33.47;;;0.20;99.90;;;;;;5026570;28;20229;-79
2021/12/09 10:55:50;;;;;;;63.20;36.27;;;0.20;99.90;;;;;;5042134;28;20193;-76
2021/12/09 10:58:18;;;;;;;62.50;33.27;;;0.20;99.90;;;;;;5039102;28;20241;-77
2021/12/09 11:00:46;;;;;;;58.47;35.73;;;0.10;99.90;;;;;;5034944;28;20617;-75
2021/12/09 11:03:17;;;;;;;58.57;34.93;;;0.00;99.90;;;;;;5034519;28;20339;-72
2021/12/09 11:05:54;;;;;;;64.07;35.23;;;0.00;99.90;;;;;;5038348;28;20200;-73
2021/12/09 11:08:29;;;;;;;61.07;35.60;;;0.00;99.90;;;;;;5036769;28;20280;-73
2021/12/09 11:11:17;;;;;;;62.50;34.67;;;0.00;99.90;;;;;;5037285;28;20756;-72
2021/12/09 11:13:47;;;;;;;61.53;34.97;;;0.00;99.90;;;;;;5057653;28;20262;-72
2021/12/09 11:16:23;;;;;;;61.33;33.03;;;-0.10;99.90;;;;;;5046954;28;20240;-73
2021/12/09 11:18:49;;;;;;;57.90;32.67;;;0.00;99.90;;;;;;5033918;28;20229;-74
2021/12/09 11:21:30;;;;;;;69.33;36.07;;;0.10;99.90;;;;;;5051274;28;20775;-76
2021/12/09 11:24:04;;;;;;;63.47;35.20;;;0.20;99.90;;;;;;5044164;28;20655;-76
2021/12/09 11:29:27;;;;;;;63.00;35.20;;;0.30;99.90;;;;;;5035008;28;20561;-74
2021/12/09 11:32:02;;;;;;;60.10;35.07;;;0.30;99.90;;;;;;5031478;28;20214;-74
2021/12/09 11:34:37;;;;;;;64.93;34.13;;;0.20;99.90;;;;;;5036385;28;21055;-72
2021/12/09 11:37:12;;;;;;;63.67;34.13;;;0.30;99.90;;;;;;5032245;28;20957;-75
2021/12/09 11:39:39;;;;;;;57.07;34.47;;;0.30;99.90;;;;;;5028618;28;20177;-72
2021/12/09 11:42:16;;;;;;;64.67;34.77;;;0.30;99.90;;;;;;5032335;28;20591;-71
2021/12/09 11:44:46;;;;;;;60.20;34.30;;;0.30;99.90;;;;;;5026982;28;20206;-74
2021/12/09 11:47:14;;;;;;;59.10;33.60;;;0.40;99.90;;;;;;5025779;28;20568;-74
2021/12/09 11:49:43;;;;;;;54.10;33.30;;;0.40;99.90;;;;;;5044623;28;20284;-74
2021/12/09 11:52:13;;;;;;;54.17;32.87;;;0.30;99.90;;;;;;5041500;28;20225;-76
2021/12/09 11:54:39;;;;;;;62.83;30.93;;;0.30;99.90;;;;;;5031919;28;20220;-75
2021/12/09 12:12:19;;;;;;;57.57;34.17;;;0.40;99.90;;;;;;5027928;28;20271;-76
2021/12/09 12:14:48;;;;;;;58.60;34.50;;;0.30;99.90;;;;;;5031038;28;20255;-77
2021/12/09 12:23:11;;;;;;;59.83;35.83;;;0.30;99.90;;;;;;5042867;28;20307;-77
2021/12/09 12:26:07;;;;;;;59.37;33.70;;;0.30;99.90;;;;;;5034836;28;20206;-77
2021/12/09 12:42:19;;;;;;;68.83;36.00;;;0.30;99.90;;;;;;5046698;28;20206;-74
2021/12/09 12:45:33;;;;;;;61.37;33.23;;;0.30;99.90;;;;;;5039529;28;20292;-74
2021/12/09 12:48:26;;;;;;;57.17;32.40;;;0.40;99.90;;;;;;5038548;28;20209;-79
2021/12/09 12:51:15;;;;;;;66.23;35.10;;;0.40;99.90;;;;;;5035812;28;20252;-76
2021/12/09 12:53:43;;;;;;;69.90;33.43;;;0.40;99.90;;;;;;5035220;28;20665;-77
2021/12/09 12:56:15;;;;;;;61.27;33.23;;;0.50;99.90;;;;;;5033009;28;20209;-77
2021/12/09 12:59:07;;;;;;;57.40;34.20;;;0.40;99.90;;;;;;5049627;28;20736;-75
2021/12/09 13:01:35;;;;;;;66.90;36.17;;;0.50;99.90;;;;;;5040510;28;20672;-75
2021/12/09 13:04:25;;;;;;;63.37;35.37;;;0.50;99.90;;;;;;5039948;28;20195;-75
2021/12/09 13:06:57;;;;;;;57.97;34.90;;;0.50;99.90;;;;;;5033606;28;20291;-74
2021/12/09 13:09:36;;;;;;;60.20;34.03;;;0.50;99.90;;;;;;5028408;28;20197;-74
2021/12/09 13:12:07;;;;;;;60.97;33.67;;;0.50;99.90;;;;;;5038885;28;20912;-73
2021/12/09 13:14:37;;;;;;;62.27;35.13;;;0.50;99.90;;;;;;5043765;28;20201;-74